EXS7TF EGCC-LEGE
Flight info
| Callsign | EXS7TF |
|---|---|
| Flight time | N/A |
| Altitude | 35000 |
| Route | SANBA N859 HON UN859 SOPIL DCT BALAN DCT EVPOK DCT NARAK DCT GAI DCT PPG A27 KANIG |
| Aircraft | A321/M-SDE3FGHIRWY/LB1 |
Departure
| Time | N/A |
|---|---|
| Airport | Manchester Airport (EGCC) |
Arrival
| Time | 2026-04-24 19:52 |
|---|---|
| Airport | Girona-Costa Brava Airport (LEGE) |
| Time | Latitude | Longitude | Altitude | Speed | Heading |
|---|---|---|---|---|---|
| 2026-04-24 19:14 | 45.54028 | 1.35492 | 35099 ft | 443 kts | 170° |
| 2026-04-24 19:14 | 45.51998 | 1.36150 | 35098 ft | 442 kts | 170° |
| 2026-04-24 19:15 | 45.46041 | 1.38073 | 35097 ft | 442 kts | 170° |
| 2026-04-24 19:15 | 45.40044 | 1.39998 | 35101 ft | 441 kts | 170° |
| 2026-04-24 19:16 | 45.31064 | 1.42892 | 35098 ft | 441 kts | 170° |
| 2026-04-24 19:16 | 45.25077 | 1.44817 | 35097 ft | 441 kts | 170° |
| 2026-04-24 19:17 | 45.19097 | 1.46722 | 35096 ft | 440 kts | 170° |
| 2026-04-24 19:17 | 45.13123 | 1.48625 | 35091 ft | 440 kts | 169° |
| 2026-04-24 19:18 | 45.07151 | 1.50531 | 35094 ft | 439 kts | 169° |
| 2026-04-24 19:18 | 45.01182 | 1.52425 | 35094 ft | 439 kts | 169° |
| 2026-04-24 19:19 | 44.95216 | 1.54309 | 35091 ft | 439 kts | 169° |
| 2026-04-24 19:19 | 44.89248 | 1.56203 | 35089 ft | 440 kts | 169° |
| 2026-04-24 19:20 | 44.83277 | 1.58097 | 35090 ft | 440 kts | 169° |
| 2026-04-24 19:20 | 44.77345 | 1.59971 | 35089 ft | 440 kts | 169° |
| 2026-04-24 19:21 | 44.71371 | 1.61835 | 35086 ft | 440 kts | 170° |
| 2026-04-24 19:21 | 44.65396 | 1.63703 | 35090 ft | 440 kts | 169° |
| 2026-04-24 19:22 | 44.59419 | 1.65579 | 35088 ft | 440 kts | 169° |
| 2026-04-24 19:22 | 44.53448 | 1.67453 | 35092 ft | 439 kts | 169° |
| 2026-04-24 19:23 | 44.47476 | 1.69318 | 35100 ft | 439 kts | 169° |
| 2026-04-24 19:23 | 44.41512 | 1.71168 | 35099 ft | 439 kts | 169° |
| 2026-04-24 19:24 | 44.35548 | 1.73023 | 35097 ft | 439 kts | 169° |
| 2026-04-24 19:24 | 44.29583 | 1.74872 | 35098 ft | 439 kts | 170° |
| 2026-04-24 19:25 | 44.23577 | 1.76401 | 35099 ft | 438 kts | 173° |
| 2026-04-24 19:25 | 44.17550 | 1.77625 | 35096 ft | 438 kts | 174° |
| 2026-04-24 19:26 | 44.11514 | 1.78861 | 35099 ft | 438 kts | 173° |
| 2026-04-24 19:26 | 44.05488 | 1.80172 | 35101 ft | 438 kts | 173° |
| 2026-04-24 19:27 | 43.95928 | 1.82758 | 35095 ft | 440 kts | 161° |
| 2026-04-24 19:27 | 43.93135 | 1.84500 | 35098 ft | 442 kts | 152° |
| 2026-04-24 19:28 | 43.87926 | 1.89047 | 35095 ft | 443 kts | 149° |
| 2026-04-24 19:28 | 43.82732 | 1.93639 | 35090 ft | 443 kts | 149° |
| 2026-04-24 19:29 | 43.74929 | 2.00518 | 35091 ft | 444 kts | 149° |
| 2026-04-24 19:30 | 43.69715 | 2.05091 | 35099 ft | 444 kts | 149° |
| 2026-04-24 19:30 | 43.64497 | 2.09672 | 35104 ft | 445 kts | 149° |
| 2026-04-24 19:31 | 43.59260 | 2.14261 | 35113 ft | 447 kts | 148° |
| 2026-04-24 19:31 | 43.54888 | 2.18080 | 35116 ft | 448 kts | 148° |
| 2026-04-24 19:32 | 43.49613 | 2.22683 | 35120 ft | 449 kts | 148° |
| 2026-04-24 19:32 | 43.46970 | 2.24991 | 34472 ft | 454 kts | 149° |
| 2026-04-24 19:32 | 43.44267 | 2.27346 | 33284 ft | 465 kts | 149° |
| 2026-04-24 19:32 | 43.41527 | 2.29729 | 32490 ft | 466 kts | 148° |
| 2026-04-24 19:33 | 43.38781 | 2.32113 | 31779 ft | 466 kts | 148° |
| 2026-04-24 19:33 | 43.36052 | 2.34481 | 31024 ft | 461 kts | 148° |
| 2026-04-24 19:33 | 43.33353 | 2.36813 | 30173 ft | 456 kts | 148° |
| 2026-04-24 19:33 | 43.30678 | 2.39123 | 29208 ft | 451 kts | 148° |
| 2026-04-24 19:34 | 43.28038 | 2.41408 | 28310 ft | 446 kts | 148° |
| 2026-04-24 19:34 | 43.25434 | 2.43663 | 27448 ft | 440 kts | 148° |
| 2026-04-24 19:34 | 43.22857 | 2.45884 | 26598 ft | 435 kts | 148° |
| 2026-04-24 19:34 | 43.20342 | 2.48042 | 25785 ft | 430 kts | 148° |
| 2026-04-24 19:35 | 43.17799 | 2.50224 | 25171 ft | 420 kts | 148° |
| 2026-04-24 19:35 | 43.15363 | 2.52320 | 24731 ft | 406 kts | 147° |
| 2026-04-24 19:35 | 43.13012 | 2.54341 | 24296 ft | 403 kts | 147° |
| 2026-04-24 19:35 | 43.10647 | 2.56371 | 23835 ft | 400 kts | 147° |
| 2026-04-24 19:36 | 43.08296 | 2.58386 | 23343 ft | 397 kts | 147° |
| 2026-04-24 19:36 | 43.05969 | 2.60380 | 22877 ft | 392 kts | 147° |
| 2026-04-24 19:36 | 43.03671 | 2.62350 | 22436 ft | 388 kts | 147° |
| 2026-04-24 19:36 | 43.01393 | 2.64304 | 21982 ft | 384 kts | 147° |
| 2026-04-24 19:37 | 42.99137 | 2.66237 | 21536 ft | 381 kts | 147° |
| 2026-04-24 19:37 | 42.96897 | 2.68152 | 21075 ft | 378 kts | 147° |
| 2026-04-24 19:37 | 42.94672 | 2.70050 | 20605 ft | 376 kts | 147° |
| 2026-04-24 19:37 | 42.92457 | 2.71937 | 20163 ft | 374 kts | 148° |
| 2026-04-24 19:38 | 42.90251 | 2.73810 | 19710 ft | 372 kts | 148° |
| 2026-04-24 19:38 | 42.88054 | 2.75672 | 19247 ft | 371 kts | 148° |
| 2026-04-24 19:38 | 42.85871 | 2.77527 | 18810 ft | 369 kts | 148° |
| 2026-04-24 19:38 | 42.83697 | 2.79379 | 18357 ft | 368 kts | 148° |
| 2026-04-24 19:39 | 42.81556 | 2.81201 | 17871 ft | 366 kts | 148° |
| 2026-04-24 19:39 | 42.79379 | 2.83047 | 17457 ft | 362 kts | 148° |
| 2026-04-24 19:39 | 42.77276 | 2.84826 | 17057 ft | 359 kts | 148° |
| 2026-04-24 19:39 | 42.75132 | 2.86513 | 16639 ft | 355 kts | 155° |
| 2026-04-24 19:40 | 42.72823 | 2.87673 | 16234 ft | 352 kts | 162° |
| 2026-04-24 19:40 | 42.70489 | 2.88668 | 15828 ft | 350 kts | 162° |
| 2026-04-24 19:40 | 42.68175 | 2.89662 | 15427 ft | 348 kts | 162° |
| 2026-04-24 19:40 | 42.65874 | 2.90655 | 15023 ft | 347 kts | 162° |
| 2026-04-24 19:41 | 42.63575 | 2.91645 | 14616 ft | 346 kts | 162° |
| 2026-04-24 19:41 | 42.61286 | 2.92632 | 14230 ft | 345 kts | 162° |
| 2026-04-24 19:41 | 42.59004 | 2.93616 | 13863 ft | 343 kts | 162° |
| 2026-04-24 19:41 | 42.56737 | 2.94592 | 13466 ft | 341 kts | 162° |
| 2026-04-24 19:42 | 42.54477 | 2.95562 | 13070 ft | 339 kts | 162° |
| 2026-04-24 19:42 | 42.52234 | 2.96520 | 12679 ft | 337 kts | 162° |
| 2026-04-24 19:42 | 42.49987 | 2.97407 | 12294 ft | 336 kts | 168° |
| 2026-04-24 19:42 | 42.47673 | 2.97703 | 11921 ft | 333 kts | 182° |
| 2026-04-24 19:43 | 42.45388 | 2.97285 | 11546 ft | 331 kts | 195° |
| 2026-04-24 19:43 | 42.43176 | 2.96422 | 11180 ft | 330 kts | 197° |
| 2026-04-24 19:43 | 42.40979 | 2.95565 | 10820 ft | 328 kts | 197° |
| 2026-04-24 19:43 | 42.38790 | 2.94721 | 10459 ft | 326 kts | 197° |
| 2026-04-24 19:44 | 42.36610 | 2.93883 | 10102 ft | 325 kts | 197° |
| 2026-04-24 19:44 | 42.34437 | 2.93047 | 9721 ft | 323 kts | 197° |
| 2026-04-24 19:44 | 42.32286 | 2.92220 | 9341 ft | 320 kts | 197° |
| 2026-04-24 19:44 | 42.30154 | 2.91399 | 8949 ft | 317 kts | 197° |
| 2026-04-24 19:45 | 42.28043 | 2.90574 | 8577 ft | 314 kts | 198° |
| 2026-04-24 19:45 | 42.25961 | 2.89711 | 8185 ft | 312 kts | 197° |
| 2026-04-24 19:45 | 42.23899 | 2.88906 | 7810 ft | 303 kts | 196° |
| 2026-04-24 19:45 | 42.21906 | 2.88152 | 7432 ft | 290 kts | 196° |
| 2026-04-24 19:46 | 42.20038 | 2.87441 | 7036 ft | 276 kts | 196° |
| 2026-04-24 19:46 | 42.18231 | 2.86750 | 6586 ft | 265 kts | 196° |
| 2026-04-24 19:46 | 42.16478 | 2.86081 | 6058 ft | 258 kts | 197° |
| 2026-04-24 19:46 | 42.14769 | 2.85429 | 5567 ft | 254 kts | 197° |
| 2026-04-24 19:47 | 42.13067 | 2.84779 | 5079 ft | 254 kts | 197° |
| 2026-04-24 19:47 | 42.11362 | 2.84129 | 4565 ft | 256 kts | 197° |
| 2026-04-24 19:47 | 42.09669 | 2.83485 | 4166 ft | 247 kts | 197° |
| 2026-04-24 19:47 | 42.08063 | 2.82875 | 3843 ft | 233 kts | 197° |
| 2026-04-24 19:48 | 42.06557 | 2.82301 | 3576 ft | 219 kts | 197° |
| 2026-04-24 19:48 | 42.05111 | 2.81751 | 3287 ft | 212 kts | 197° |
| 2026-04-24 19:48 | 42.02407 | 2.80723 | 2733 ft | 192 kts | 196° |
| 2026-04-24 19:49 | 42.00034 | 2.79823 | 2264 ft | 166 kts | 197° |
| 2026-04-24 19:49 | 41.97860 | 2.79001 | 1763 ft | 157 kts | 197° |
| 2026-04-24 19:50 | 41.94899 | 2.77875 | 1231 ft | 143 kts | 196° |
| 2026-04-24 19:50 | 41.93941 | 2.77512 | 1029 ft | 142 kts | 196° |
| 2026-04-24 19:51 | 41.92044 | 2.76795 | 645 ft | 140 kts | 196° |
| 2026-04-24 19:51 | 41.91103 | 2.76442 | 471 ft | 138 kts | 196° |
| 2026-04-24 19:52 | 41.89967 | 2.76009 | 430 ft | 33 kts | 196° |
| 2026-04-24 19:52 | 41.89807 | 2.75948 | 417 ft | 22 kts | 196° |
| 2026-04-24 19:52 | 41.89655 | 2.75889 | 420 ft | 23 kts | 196° |
| 2026-04-24 19:52 | 41.89540 | 2.75881 | 410 ft | 13 kts | 150° |
| 2026-04-24 19:53 | 41.89546 | 2.75998 | 411 ft | 14 kts | 58° |
| 2026-04-24 19:53 | 41.89600 | 2.76090 | 413 ft | 11 kts | 32° |
| 2026-04-24 19:53 | 41.89749 | 2.76156 | 417 ft | 10 kts | 15° |
| 2026-04-24 19:54 | 41.89818 | 2.76182 | 415 ft | 11 kts | 16° |
| 2026-04-24 19:54 | 41.89878 | 2.76205 | 418 ft | 6 kts | 16° |
| 2026-04-24 19:54 | 41.89907 | 2.76227 | 422 ft | 6 kts | 53° |
| 2026-04-24 19:54 | 41.89899 | 2.76322 | 419 ft | 14 kts | 103° |
| 2026-04-24 19:55 | 41.89896 | 2.76408 | 422 ft | 12 kts | 83° |
| 2026-04-24 19:55 | 41.89897 | 2.76481 | 421 ft | 3 kts | 102° |
| 2026-04-24 19:55 | 41.89895 | 2.76493 | 415 ft | 0 kts | 103° |
| 2026-04-24 19:58 | 41.89895 | 2.76494 | 421 ft | 0 kts | 103° |